VIR164 MUHA-KMIA
Flight info
| Callsign | VIR164 |
|---|---|
| Flight time | 0h 50m |
| Altitude | 25000 |
| Route | EPMAR4A MAXIM SNDBR3 |
| Aircraft | A346/H-SDE2E3FGHIJ3J4J5M1RWXY/LB1D1 |
Departure
| Time | 2026-05-03 22:08 |
|---|---|
| Airport | José Martí International Airport (MUHA) |
Arrival
| Time | 2026-05-03 22:59 |
|---|---|
| Airport | Miami International Airport (KMIA) |
| Time | Latitude | Longitude | Altitude | Speed | Heading |
|---|---|---|---|---|---|
| 2026-05-03 21:57 | 22.98361 | -82.42185 | 206 ft | 0 kts | 223° |
| 2026-05-03 22:02 | 22.98359 | -82.42187 | 206 ft | 0 kts | 223° |
| 2026-05-03 22:02 | 22.98358 | -82.42189 | 206 ft | 1 kts | 223° |
| 2026-05-03 22:03 | 22.98345 | -82.42198 | 217 ft | 3 kts | 206° |
| 2026-05-03 22:03 | 22.98313 | -82.42210 | 217 ft | 6 kts | 197° |
| 2026-05-03 22:03 | 22.98262 | -82.42234 | 210 ft | 9 kts | 218° |
| 2026-05-03 22:03 | 22.98210 | -82.42295 | 216 ft | 13 kts | 229° |
| 2026-05-03 22:04 | 22.98149 | -82.42377 | 215 ft | 15 kts | 232° |
| 2026-05-03 22:04 | 22.98080 | -82.42481 | 216 ft | 19 kts | 236° |
| 2026-05-03 22:04 | 22.97993 | -82.42542 | 211 ft | 6 kts | 179° |
| 2026-05-03 22:04 | 22.97938 | -82.42524 | 211 ft | 10 kts | 154° |
| 2026-05-03 22:05 | 22.97902 | -82.42459 | 217 ft | 12 kts | 84° |
| 2026-05-03 22:05 | 22.97913 | -82.42429 | 212 ft | 0 kts | 58° |
| 2026-05-03 22:07 | 22.97914 | -82.42427 | 213 ft | 1 kts | 58° |
| 2026-05-03 22:07 | 22.97923 | -82.42413 | 212 ft | 3 kts | 56° |
| 2026-05-03 22:08 | 22.98011 | -82.42279 | 214 ft | 64 kts | 54° |
| 2026-05-03 22:08 | 22.98463 | -82.41600 | 215 ft | 154 kts | 54° |
| 2026-05-03 22:08 | 22.99196 | -82.40481 | 627 ft | 196 kts | 53° |
| 2026-05-03 22:08 | 22.99980 | -82.39161 | 1384 ft | 221 kts | 56° |
| 2026-05-03 22:09 | 23.00883 | -82.37765 | 2540 ft | 231 kts | 53° |
| 2026-05-03 22:09 | 23.01853 | -82.36370 | 3484 ft | 238 kts | 53° |
| 2026-05-03 22:09 | 23.02874 | -82.34888 | 4066 ft | 255 kts | 54° |
| 2026-05-03 22:10 | 23.05124 | -82.31532 | 5018 ft | 286 kts | 54° |
| 2026-05-03 22:10 | 23.06298 | -82.29756 | 5479 ft | 291 kts | 54° |
| 2026-05-03 22:10 | 23.07484 | -82.27966 | 5940 ft | 292 kts | 54° |
| 2026-05-03 22:10 | 23.08678 | -82.26166 | 6406 ft | 294 kts | 54° |
| 2026-05-03 22:11 | 23.09879 | -82.24360 | 6841 ft | 296 kts | 54° |
| 2026-05-03 22:11 | 23.11086 | -82.22539 | 7292 ft | 297 kts | 54° |
| 2026-05-03 22:11 | 23.12299 | -82.20707 | 7752 ft | 299 kts | 54° |
| 2026-05-03 22:11 | 23.13733 | -82.19037 | 8292 ft | 307 kts | 31° |
| 2026-05-03 22:12 | 23.15700 | -82.18232 | 9267 ft | 301 kts | 4° |
| 2026-05-03 22:12 | 23.17740 | -82.18436 | 10261 ft | 293 kts | 339° |
| 2026-05-03 22:12 | 23.19644 | -82.19204 | 10956 ft | 302 kts | 335° |
| 2026-05-03 22:12 | 23.21654 | -82.20071 | 11433 ft | 319 kts | 336° |
| 2026-05-03 22:13 | 23.23780 | -82.20971 | 11862 ft | 338 kts | 336° |
| 2026-05-03 22:13 | 23.26041 | -82.21903 | 12222 ft | 356 kts | 336° |
| 2026-05-03 22:13 | 23.28422 | -82.22869 | 12632 ft | 374 kts | 337° |
| 2026-05-03 22:13 | 23.30917 | -82.23879 | 13056 ft | 390 kts | 337° |
| 2026-05-03 22:14 | 23.33487 | -82.24919 | 13761 ft | 396 kts | 337° |
| 2026-05-03 22:14 | 23.36080 | -82.25966 | 14511 ft | 400 kts | 337° |
| 2026-05-03 22:14 | 23.38706 | -82.27027 | 15231 ft | 404 kts | 337° |
| 2026-05-03 22:14 | 23.41355 | -82.28096 | 15928 ft | 408 kts | 336° |
| 2026-05-03 22:15 | 23.44028 | -82.29177 | 16600 ft | 413 kts | 336° |
| 2026-05-03 22:15 | 23.46721 | -82.30266 | 17282 ft | 417 kts | 336° |
| 2026-05-03 22:15 | 23.49460 | -82.31374 | 17966 ft | 421 kts | 336° |
| 2026-05-03 22:15 | 23.52222 | -82.32492 | 18580 ft | 425 kts | 336° |
| 2026-05-03 22:16 | 23.55043 | -82.33635 | 19154 ft | 429 kts | 336° |
| 2026-05-03 22:16 | 23.57816 | -82.34754 | 19745 ft | 433 kts | 335° |
| 2026-05-03 22:16 | 23.60653 | -82.35900 | 20310 ft | 437 kts | 335° |
| 2026-05-03 22:16 | 23.63514 | -82.37062 | 20874 ft | 440 kts | 335° |
| 2026-05-03 22:17 | 23.66385 | -82.38227 | 21595 ft | 439 kts | 335° |
| 2026-05-03 22:17 | 23.69239 | -82.39384 | 22425 ft | 436 kts | 335° |
| 2026-05-03 22:17 | 23.72077 | -82.40531 | 23284 ft | 433 kts | 334° |
| 2026-05-03 22:17 | 23.74900 | -82.41673 | 23950 ft | 433 kts | 334° |
| 2026-05-03 22:18 | 23.77724 | -82.42823 | 24479 ft | 435 kts | 333° |
| 2026-05-03 22:18 | 23.80576 | -82.43987 | 24871 ft | 438 kts | 333° |
| 2026-05-03 22:18 | 23.83438 | -82.45154 | 24995 ft | 440 kts | 333° |
| 2026-05-03 22:18 | 23.86307 | -82.46323 | 24987 ft | 440 kts | 333° |
| 2026-05-03 22:19 | 23.89178 | -82.47490 | 25009 ft | 440 kts | 333° |
| 2026-05-03 22:19 | 23.92053 | -82.48655 | 25001 ft | 440 kts | 333° |
| 2026-05-03 22:19 | 23.94917 | -82.49821 | 24994 ft | 440 kts | 333° |
| 2026-05-03 22:19 | 23.97789 | -82.50994 | 24995 ft | 440 kts | 333° |
| 2026-05-03 22:20 | 24.00651 | -82.52190 | 24993 ft | 437 kts | 329° |
| 2026-05-03 22:20 | 24.03163 | -82.53927 | 24981 ft | 424 kts | 312° |
| 2026-05-03 22:20 | 24.05093 | -82.56333 | 25001 ft | 420 kts | 302° |
| 2026-05-03 22:20 | 24.07140 | -82.58662 | 24958 ft | 434 kts | 318° |
| 2026-05-03 22:21 | 24.09900 | -82.60092 | 24973 ft | 449 kts | 339° |
| 2026-05-03 22:21 | 24.13002 | -82.60356 | 24979 ft | 461 kts | 0° |
| 2026-05-03 22:21 | 24.16139 | -82.59369 | 24983 ft | 471 kts | 22° |
| 2026-05-03 22:21 | 24.18794 | -82.57238 | 24985 ft | 478 kts | 43° |
| 2026-05-03 22:22 | 24.20763 | -82.54297 | 25011 ft | 480 kts | 60° |
| 2026-05-03 22:22 | 24.21702 | -82.52052 | 25006 ft | 481 kts | 70° |
| 2026-05-03 22:22 | 24.22442 | -82.48488 | 24999 ft | 479 kts | 87° |
| 2026-05-03 22:22 | 24.22304 | -82.44865 | 24991 ft | 473 kts | 104° |
| 2026-05-03 22:23 | 24.21265 | -82.41480 | 24996 ft | 465 kts | 121° |
| 2026-05-03 22:23 | 24.19718 | -82.38374 | 24999 ft | 464 kts | 125° |
| 2026-05-03 22:23 | 24.18209 | -82.35229 | 24968 ft | 470 kts | 115° |
| 2026-05-03 22:23 | 24.17563 | -82.31702 | 24970 ft | 478 kts | 92° |
| 2026-05-03 22:24 | 24.18045 | -82.28105 | 24982 ft | 480 kts | 71° |
| 2026-05-03 22:24 | 24.19410 | -82.24766 | 25027 ft | 481 kts | 60° |
| 2026-05-03 22:24 | 24.21043 | -82.21554 | 25011 ft | 483 kts | 59° |
| 2026-05-03 22:24 | 24.22681 | -82.18337 | 25003 ft | 483 kts | 60° |
| 2026-05-03 22:25 | 24.24243 | -82.15117 | 24996 ft | 484 kts | 61° |
| 2026-05-03 22:25 | 24.25764 | -82.11827 | 24995 ft | 484 kts | 62° |
| 2026-05-03 22:25 | 24.27248 | -82.08514 | 24997 ft | 484 kts | 63° |
| 2026-05-03 22:25 | 24.28714 | -82.05179 | 24994 ft | 484 kts | 63° |
| 2026-05-03 22:26 | 24.30166 | -82.01849 | 24993 ft | 484 kts | 63° |
| 2026-05-03 22:26 | 24.31611 | -81.98524 | 24997 ft | 484 kts | 63° |
| 2026-05-03 22:26 | 24.33064 | -81.95178 | 24999 ft | 484 kts | 63° |
| 2026-05-03 22:26 | 24.34511 | -81.91843 | 24995 ft | 484 kts | 63° |
| 2026-05-03 22:27 | 24.35961 | -81.88500 | 24998 ft | 484 kts | 63° |
| 2026-05-03 22:27 | 24.37408 | -81.85160 | 24997 ft | 484 kts | 63° |
| 2026-05-03 22:27 | 24.38855 | -81.81820 | 24985 ft | 485 kts | 64° |
| 2026-05-03 22:27 | 24.40224 | -81.78657 | 24996 ft | 485 kts | 63° |
| 2026-05-03 22:28 | 24.41433 | -81.75861 | 24995 ft | 484 kts | 63° |
| 2026-05-03 22:28 | 24.42888 | -81.72494 | 24996 ft | 484 kts | 63° |
| 2026-05-03 22:28 | 24.44368 | -81.69166 | 24994 ft | 484 kts | 60° |
| 2026-05-03 22:28 | 24.46072 | -81.65983 | 24995 ft | 483 kts | 54° |
| 2026-05-03 22:29 | 24.48036 | -81.62996 | 24992 ft | 480 kts | 49° |
| 2026-05-03 22:29 | 24.50142 | -81.60163 | 24993 ft | 478 kts | 47° |
| 2026-05-03 22:29 | 24.52285 | -81.57365 | 24994 ft | 478 kts | 47° |
| 2026-05-03 22:29 | 24.54428 | -81.54572 | 24999 ft | 478 kts | 47° |
| 2026-05-03 22:30 | 24.56568 | -81.51764 | 24985 ft | 478 kts | 47° |
| 2026-05-03 22:30 | 24.58697 | -81.48953 | 24750 ft | 478 kts | 47° |
| 2026-05-03 22:30 | 24.60819 | -81.46138 | 24534 ft | 478 kts | 48° |
| 2026-05-03 22:30 | 24.62942 | -81.43314 | 24309 ft | 478 kts | 48° |
| 2026-05-03 22:31 | 24.65034 | -81.40526 | 24128 ft | 478 kts | 48° |
| 2026-05-03 22:31 | 24.67180 | -81.37665 | 23996 ft | 478 kts | 48° |
| 2026-05-03 22:31 | 24.69297 | -81.34844 | 23869 ft | 478 kts | 48° |
| 2026-05-03 22:31 | 24.71418 | -81.32019 | 23756 ft | 478 kts | 48° |
| 2026-05-03 22:32 | 24.73512 | -81.29227 | 23723 ft | 478 kts | 48° |
| 2026-05-03 22:32 | 24.75660 | -81.26361 | 23687 ft | 477 kts | 48° |
| 2026-05-03 22:32 | 24.77742 | -81.23580 | 23622 ft | 478 kts | 48° |
| 2026-05-03 22:32 | 24.79852 | -81.20758 | 23487 ft | 477 kts | 48° |
| 2026-05-03 22:33 | 24.81967 | -81.17928 | 23361 ft | 478 kts | 48° |
| 2026-05-03 22:33 | 24.84079 | -81.15100 | 23231 ft | 478 kts | 48° |
| 2026-05-03 22:33 | 24.86307 | -81.12400 | 23005 ft | 474 kts | 37° |
| 2026-05-03 22:33 | 24.89061 | -81.10471 | 22997 ft | 466 kts | 21° |
| 2026-05-03 22:34 | 24.92013 | -81.09001 | 23004 ft | 465 kts | 19° |
| 2026-05-03 22:34 | 24.94981 | -81.07591 | 22997 ft | 465 kts | 19° |
| 2026-05-03 22:34 | 24.97948 | -81.06181 | 23000 ft | 465 kts | 19° |
| 2026-05-03 22:34 | 25.00909 | -81.04756 | 23001 ft | 465 kts | 19° |
| 2026-05-03 22:35 | 25.03873 | -81.03312 | 22999 ft | 465 kts | 19° |
| 2026-05-03 22:35 | 25.06827 | -81.01861 | 23016 ft | 466 kts | 19° |
| 2026-05-03 22:35 | 25.09794 | -81.00396 | 23005 ft | 468 kts | 19° |
| 2026-05-03 22:35 | 25.12765 | -80.98928 | 23001 ft | 468 kts | 19° |
| 2026-05-03 22:36 | 25.15733 | -80.97461 | 23001 ft | 468 kts | 19° |
| 2026-05-03 22:36 | 25.18715 | -80.95986 | 23000 ft | 469 kts | 19° |
| 2026-05-03 22:36 | 25.21688 | -80.94513 | 23000 ft | 469 kts | 19° |
| 2026-05-03 22:36 | 25.24666 | -80.93037 | 23002 ft | 468 kts | 19° |
| 2026-05-03 22:37 | 25.27632 | -80.91566 | 22739 ft | 466 kts | 19° |
| 2026-05-03 22:37 | 25.30596 | -80.90095 | 22012 ft | 467 kts | 19° |
| 2026-05-03 22:37 | 25.33560 | -80.88626 | 21290 ft | 468 kts | 20° |
| 2026-05-03 22:37 | 25.36530 | -80.87150 | 20606 ft | 468 kts | 20° |
| 2026-05-03 22:38 | 25.39506 | -80.85675 | 19919 ft | 467 kts | 19° |
| 2026-05-03 22:38 | 25.42494 | -80.84273 | 19243 ft | 466 kts | 18° |
| 2026-05-03 22:38 | 25.45489 | -80.82938 | 18703 ft | 461 kts | 16° |
| 2026-05-03 22:38 | 25.48508 | -80.81768 | 18144 ft | 456 kts | 14° |
| 2026-05-03 22:39 | 25.51501 | -80.80661 | 17544 ft | 451 kts | 14° |
| 2026-05-03 22:39 | 25.54225 | -80.79657 | 17005 ft | 447 kts | 14° |
| 2026-05-03 22:39 | 25.57163 | -80.78562 | 16428 ft | 443 kts | 15° |
| 2026-05-03 22:39 | 25.60069 | -80.77471 | 15766 ft | 438 kts | 15° |
| 2026-05-03 22:40 | 25.62935 | -80.76388 | 14669 ft | 430 kts | 15° |
| 2026-05-03 22:40 | 25.65593 | -80.74992 | 13907 ft | 420 kts | 33° |
| 2026-05-03 22:40 | 25.67686 | -80.72585 | 12964 ft | 411 kts | 54° |
| 2026-05-03 22:40 | 25.69216 | -80.69911 | 12066 ft | 400 kts | 57° |
| 2026-05-03 22:41 | 25.70677 | -80.67320 | 11191 ft | 391 kts | 56° |
| 2026-05-03 22:41 | 25.72187 | -80.64845 | 10339 ft | 382 kts | 53° |
| 2026-05-03 22:41 | 25.73713 | -80.62510 | 9452 ft | 374 kts | 52° |
| 2026-05-03 22:41 | 25.75279 | -80.60198 | 8535 ft | 366 kts | 52° |
| 2026-05-03 22:42 | 25.76801 | -80.57968 | 7646 ft | 359 kts | 53° |
| 2026-05-03 22:42 | 25.77929 | -80.55577 | 6763 ft | 354 kts | 75° |
| 2026-05-03 22:42 | 25.78187 | -80.52889 | 5906 ft | 347 kts | 92° |
| 2026-05-03 22:42 | 25.78097 | -80.50237 | 5032 ft | 342 kts | 93° |
| 2026-05-03 22:43 | 25.78007 | -80.47615 | 4148 ft | 338 kts | 92° |
| 2026-05-03 22:43 | 25.78040 | -80.45009 | 3431 ft | 329 kts | 88° |
| 2026-05-03 22:43 | 25.78156 | -80.42546 | 2999 ft | 313 kts | 87° |
| 2026-05-03 22:43 | 25.78262 | -80.40229 | 2889 ft | 286 kts | 88° |
| 2026-05-03 22:44 | 25.78343 | -80.38130 | 2893 ft | 252 kts | 87° |
| 2026-05-03 22:44 | 25.78414 | -80.36316 | 2915 ft | 221 kts | 86° |
| 2026-05-03 22:44 | 25.78482 | -80.34620 | 2891 ft | 218 kts | 87° |
| 2026-05-03 22:44 | 25.78552 | -80.32933 | 2920 ft | 218 kts | 88° |
| 2026-05-03 22:45 | 25.78620 | -80.31256 | 2898 ft | 216 kts | 87° |
| 2026-05-03 22:45 | 25.78687 | -80.29613 | 2893 ft | 216 kts | 88° |
| 2026-05-03 22:45 | 25.78755 | -80.27967 | 2884 ft | 217 kts | 88° |
| 2026-05-03 22:45 | 25.78586 | -80.26315 | 2892 ft | 216 kts | 109° |
| 2026-05-03 22:46 | 25.77708 | -80.24998 | 2874 ft | 214 kts | 146° |
| 2026-05-03 22:46 | 25.76337 | -80.24418 | 2916 ft | 212 kts | 169° |
| 2026-05-03 22:46 | 25.74875 | -80.24117 | 2917 ft | 212 kts | 172° |
| 2026-05-03 22:46 | 25.73418 | -80.23857 | 2896 ft | 212 kts | 173° |
| 2026-05-03 22:47 | 25.71961 | -80.23590 | 2917 ft | 215 kts | 175° |
| 2026-05-03 22:47 | 25.70487 | -80.23781 | 2890 ft | 217 kts | 205° |
| 2026-05-03 22:47 | 25.69366 | -80.24885 | 2893 ft | 224 kts | 240° |
| 2026-05-03 22:47 | 25.68872 | -80.26555 | 2889 ft | 232 kts | 259° |
| 2026-05-03 22:48 | 25.68615 | -80.28317 | 2893 ft | 229 kts | 262° |
| 2026-05-03 22:48 | 25.68404 | -80.30081 | 2896 ft | 231 kts | 262° |
| 2026-05-03 22:48 | 25.68196 | -80.31867 | 2885 ft | 230 kts | 263° |
| 2026-05-03 22:48 | 25.67986 | -80.33627 | 2886 ft | 229 kts | 262° |
| 2026-05-03 22:49 | 25.67775 | -80.35393 | 2892 ft | 232 kts | 263° |
| 2026-05-03 22:49 | 25.67567 | -80.37185 | 2918 ft | 232 kts | 264° |
| 2026-05-03 22:49 | 25.67642 | -80.38963 | 2901 ft | 231 kts | 279° |
| 2026-05-03 22:49 | 25.67957 | -80.40732 | 2897 ft | 237 kts | 282° |
| 2026-05-03 22:50 | 25.68320 | -80.42526 | 2886 ft | 239 kts | 282° |
| 2026-05-03 22:50 | 25.68693 | -80.44334 | 2886 ft | 239 kts | 282° |
| 2026-05-03 22:50 | 25.69065 | -80.46133 | 2895 ft | 239 kts | 282° |
| 2026-05-03 22:50 | 25.69441 | -80.47929 | 2896 ft | 239 kts | 283° |
| 2026-05-03 22:51 | 25.69821 | -80.49729 | 2895 ft | 239 kts | 283° |
| 2026-05-03 22:51 | 25.70201 | -80.51536 | 2904 ft | 240 kts | 282° |
| 2026-05-03 22:51 | 25.70582 | -80.53339 | 2899 ft | 240 kts | 282° |
| 2026-05-03 22:51 | 25.70971 | -80.55137 | 2900 ft | 239 kts | 283° |
| 2026-05-03 22:52 | 25.71368 | -80.56914 | 2908 ft | 237 kts | 282° |
| 2026-05-03 22:52 | 25.72011 | -80.58562 | 2863 ft | 240 kts | 308° |
| 2026-05-03 22:52 | 25.73365 | -80.59654 | 2864 ft | 244 kts | 340° |
| 2026-05-03 22:52 | 25.75063 | -80.59799 | 2900 ft | 251 kts | 11° |
| 2026-05-03 22:53 | 25.76617 | -80.58955 | 2891 ft | 252 kts | 45° |
| 2026-05-03 22:53 | 25.77466 | -80.57306 | 2906 ft | 244 kts | 76° |
| 2026-05-03 22:53 | 25.77704 | -80.55450 | 2940 ft | 244 kts | 87° |
| 2026-05-03 22:53 | 25.77769 | -80.53643 | 2921 ft | 221 kts | 89° |
| 2026-05-03 22:54 | 25.77803 | -80.52023 | 2884 ft | 197 kts | 88° |
| 2026-05-03 22:54 | 25.77840 | -80.50577 | 2870 ft | 183 kts | 88° |
| 2026-05-03 22:54 | 25.77887 | -80.49167 | 2886 ft | 181 kts | 87° |
| 2026-05-03 22:54 | 25.77941 | -80.47782 | 2854 ft | 173 kts | 88° |
| 2026-05-03 22:55 | 25.77995 | -80.46473 | 2687 ft | 167 kts | 87° |
| 2026-05-03 22:55 | 25.78050 | -80.45200 | 2465 ft | 162 kts | 87° |
| 2026-05-03 22:55 | 25.78100 | -80.43982 | 2251 ft | 158 kts | 87° |
| 2026-05-03 22:55 | 25.78150 | -80.42765 | 2036 ft | 157 kts | 87° |
| 2026-05-03 22:56 | 25.78199 | -80.41558 | 1833 ft | 155 kts | 87° |
| 2026-05-03 22:56 | 25.78247 | -80.40361 | 1641 ft | 154 kts | 86° |
| 2026-05-03 22:56 | 25.78295 | -80.39175 | 1428 ft | 154 kts | 87° |
| 2026-05-03 22:56 | 25.78345 | -80.37961 | 1236 ft | 153 kts | 87° |
| 2026-05-03 22:57 | 25.78393 | -80.36781 | 1031 ft | 152 kts | 86° |
| 2026-05-03 22:57 | 25.78441 | -80.35607 | 838 ft | 151 kts | 87° |
| 2026-05-03 22:57 | 25.78489 | -80.34443 | 642 ft | 149 kts | 88° |
| 2026-05-03 22:57 | 25.78533 | -80.33322 | 427 ft | 145 kts | 87° |
| 2026-05-03 22:58 | 25.78579 | -80.32214 | 245 ft | 139 kts | 88° |
| 2026-05-03 22:58 | 25.78623 | -80.31146 | 84 ft | 142 kts | 87° |
| 2026-05-03 22:58 | 25.78674 | -80.30034 | 27 ft | 135 kts | 88° |
| 2026-05-03 22:58 | 25.78706 | -80.29240 | 31 ft | 71 kts | 88° |
| 2026-05-03 22:59 | 25.78724 | -80.28885 | 29 ft | 28 kts | 85° |
| 2026-05-03 22:59 | 25.78736 | -80.28727 | 31 ft | 19 kts | 88° |
| 2026-05-03 22:59 | 25.78750 | -80.28570 | 29 ft | 21 kts | 77° |
| 2026-05-03 22:59 | 25.78806 | -80.28457 | 30 ft | 0 kts | 57° |
| 2026-05-03 23:00 | 25.78808 | -80.28454 | 30 ft | 0 kts | 57° |
| 2026-05-03 23:01 | 25.78869 | -80.28362 | 31 ft | 19 kts | 52° |
| 2026-05-03 23:01 | 25.78946 | -80.28254 | 31 ft | 9 kts | 50° |
| 2026-05-03 23:01 | 25.78959 | -80.28241 | 32 ft | 3 kts | 33° |
| 2026-05-03 23:01 | 25.78964 | -80.28238 | 32 ft | 2 kts | 27° |
| 2026-05-03 23:02 | 25.78983 | -80.28233 | 32 ft | 3 kts | 2° |
| 2026-05-03 23:02 | 25.79008 | -80.28243 | 33 ft | 5 kts | 323° |
| 2026-05-03 23:02 | 25.79035 | -80.28277 | 33 ft | 7 kts | 309° |
| 2026-05-03 23:02 | 25.79075 | -80.28336 | 33 ft | 12 kts | 303° |
| 2026-05-03 23:03 | 25.79113 | -80.28394 | 31 ft | 10 kts | 319° |
| 2026-05-03 23:03 | 25.79188 | -80.28412 | 30 ft | 13 kts | 17° |
| 2026-05-03 23:03 | 25.79253 | -80.28352 | 32 ft | 12 kts | 42° |
| 2026-05-03 23:03 | 25.79304 | -80.28306 | 31 ft | 4 kts | 38° |
| 2026-05-03 23:04 | 25.79331 | -80.28277 | 31 ft | 7 kts | 49° |
| 2026-05-03 23:04 | 25.79343 | -80.28260 | 31 ft | 2 kts | 53° |
| 2026-05-03 23:04 | 25.79367 | -80.28220 | 31 ft | 12 kts | 60° |
| 2026-05-03 23:04 | 25.79381 | -80.28172 | 31 ft | 0 kts | 94° |
| 2026-05-03 23:05 | 25.79379 | -80.28155 | 32 ft | 6 kts | 105° |
| 2026-05-03 23:05 | 25.79367 | -80.28140 | 32 ft | 0 kts | 149° |
| 2026-05-03 23:05 | 25.79342 | -80.28128 | 32 ft | 1 kts | 178° |
| 2026-05-03 23:05 | 25.79335 | -80.28128 | 32 ft | 1 kts | 172° |
| 2026-05-03 23:06 | 25.79327 | -80.28126 | 32 ft | 3 kts | 169° |